In Rescue
 
Open Full Screen Window  High Contrast Mode
Wind Gusting 00 knots
04
November 20, 2018 12:27 AM EST
Weather Information
Wind Direction
  300 °
Wind Speed
  04 kt (5 mph)
Wind Gust
  00 kt (0 mph)
Altimeter
30.02 in
Visibility
7 SM
Temperature
02° C
36° F
Dewpoint
01° C
34° F
Humidity
93%
1hr Rain Fall
00.00 in.
24hr Rain Fall
00.27 in.
Sky Condition
Overcast @ 6,000 ft
Broken @ 2,600 ft
Scattered @ 1,400 ft
MVFR

METAR KDLZ 200527Z AUTO 30004KT 7SM SCT014 BKN026 OVC060 02/01 A3002 RMK AO2

FAA Disclaimer: The data displayed is for advisory purposes only and is not to be used for flight planning or operations.